Flight Track Log - Related Links

Times and Time Zones

All times are in EDT time to prevent confusion due to time zone crossing. See the TSC417 flight status page for this flight to view local times or setup timezone preferences in your user account.

Time Position Orientation Groundspeed Altitude Reporting Facility
EDT Latitude Longitude Course Direction KTS MPH feet Rate Location/Type
Mon 10:07:15 PM 23.2108 -81.3519 14° North 449 517 6,800  Level Miami Center
Mon 10:08:15 PM 23.2864 -81.3389 North 370 426 9,400 2,100 Climbing Miami Center
Mon 10:09:15 PM 23.3703 -81.3258 North 325 374 11,000 1,650 Climbing Miami Center
Mon 10:10:15 PM 23.4669 -81.3089 North 319 367 12,700 1,900 Climbing Miami Center
Mon 10:11:15 PM 23.5675 -81.2919 North 339 390 14,800 1,785 Climbing Miami Center
Mon 10:12:00 PM 23.0823 -81.4226 14° North  Level Estimated
Mon 10:17:22 PM 24.2580 -81.1860 North 419 482 25,400  Level FlightAware ADS-B
Mon 10:18:07 PM 24.3390 -81.1890 358° North 415 478 26,300 1,059 Climbing FlightAware ADS-B
Mon 10:18:47 PM 24.4250 -81.1920 358° North 433 498 26,900 918 Climbing FlightAware ADS-B
Mon 10:19:32 PM 24.5170 -81.1950 358° North 434 499 27,600 988 Climbing FlightAware ADS-B
Mon 10:20:12 PM 24.5960 -81.1980 358° North 447 514 28,300 975 Climbing FlightAware ADS-B
Mon 10:20:52 PM 24.6810 -81.2010 358° North 453 521 28,900 918 Climbing FlightAware ADS-B
Mon 10:21:37 PM 24.7760 -81.2040 358° North 449 517 29,600 1,059 Climbing FlightAware ADS-B
Mon 10:22:17 PM 24.8640 -81.2070 358° North 450 518 30,400 1,341 Climbing FlightAware ADS-B
Mon 10:23:02 PM 24.9610 -81.2100 358° North 451 519 31,500 1,553 Climbing FlightAware ADS-B
Mon 10:23:42 PM 25.0390 -81.2120 359° North 434 499 32,600 1,125 Climbing FlightAware ADS-B
Mon 10:24:22 PM 25.1240 -81.2150 358° North 438 504 33,000 282 Climbing FlightAware ADS-B
Mon 10:25:07 PM 25.2150 -81.2190 358° North 447 514 33,000  Level FlightAware ADS-B
Mon 10:25:47 PM 25.3010 -81.2220 358° North 447 514 33,000  Level FlightAware ADS-B
Mon 10:26:32 PM 25.3910 -81.2250 358° North 448 516 33,000 424 Level FlightAware ADS-B
Mon 10:27:12 PM 25.4770 -81.2280 358° North 447 514 33,600 1,125 Climbing FlightAware ADS-B
Mon 10:27:52 PM 25.5590 -81.2300 359° North 437 503 34,500 1,624 Climbing FlightAware ADS-B
Mon 10:28:37 PM 25.6500 -81.2340 358° North 435 501 35,900 1,624 Climbing FlightAware ADS-B
Mon 10:29:17 PM 25.7310 -81.2360 359° North 422 486 36,800 1,129 Climbing FlightAware ADS-B
Mon 10:30:02 PM 25.8210 -81.2390 358° North 432 497 37,500 776 Climbing FlightAware ADS-B
Mon 10:30:42 PM 25.9020 -81.2420 358° North 432 497 37,900 975 Climbing FlightAware ADS-B
Mon 10:31:22 PM 25.9820 -81.2450 358° North 432 497 38,800 776 Climbing FlightAware ADS-B
Mon 10:32:07 PM 26.0730 -81.2480 358° North 434 499 39,000 141 Climbing FlightAware ADS-B
Mon 10:32:47 PM 26.1540 -81.2510 358° North 435 501 39,000  Level FlightAware ADS-B
Mon 10:33:32 PM 26.2440 -81.2540 358° North 437 503 39,000  Level FlightAware ADS-B
Mon 10:34:12 PM 26.3240 -81.2570 358° North 436 502 39,000  Level FlightAware ADS-B
Mon 10:34:52 PM 26.4050 -81.2600 358° North 435 501 39,000  Level FlightAware ADS-B
Mon 10:35:37 PM 26.4970 -81.2630 358° North 436 502 39,000  Level FlightAware ADS-B
Mon 10:36:17 PM 26.5770 -81.2660 358° North 431 496 39,000  Level FlightAware ADS-B
Mon 10:36:57 PM 26.6600 -81.2690 358° North 433 498 39,000  Level FlightAware ADS-B
Mon 10:37:42 PM 26.7490 -81.2720 358° North 435 501 39,000  Level FlightAware ADS-B
Mon 10:38:17 PM 26.8210 -81.2740 359° North 434 499 39,000  Level FlightAware ADS-B
Mon 10:39:07 PM 26.9240 -81.2780 358° North 433 498 39,000  Level FlightAware ADS-B
Mon 10:39:47 PM 26.9980 -81.2800 359° North 433 498 39,000  Level FlightAware ADS-B
Mon 10:40:32 PM 27.0970 -81.2840 358° North 435 501 39,000  Level FlightAware ADS-B
Mon 10:41:07 PM 27.1660 -81.2860 359° North 435 501 39,000  Level FlightAware ADS-B
Mon 10:41:52 PM 27.2630 -81.2890 358° North 436 502 39,000  Level FlightAware ADS-B
Mon 10:42:37 PM 27.3560 -81.2930 358° North 435 501 39,000  Level FlightAware ADS-B
Mon 10:43:17 PM 27.4380 -81.2960 358° North 435 501 39,000  Level FlightAware ADS-B
Mon 10:44:02 PM 27.5330 -81.2990 358° North 443 510 39,000  Level FlightAware ADS-B
Mon 10:44:42 PM 27.6160 -81.3030 358° North 441 507 39,000  Level FlightAware ADS-B
Mon 10:45:22 PM 27.6990 -81.3090 356° North 441 507 39,000  Level FlightAware ADS-B
Mon 10:46:07 PM 27.7820 -81.3160 356° North 442 509 39,000  Level FlightAware ADS-B
Mon 10:46:47 PM 27.8670 -81.3220 356° North 435 501 39,000  Level FlightAware ADS-B
Mon 10:47:32 PM 27.9640 -81.3290 356° North 444 511 39,000  Level FlightAware ADS-B
Mon 10:48:12 PM 28.0480 -81.3360 356° North 445 512 39,000  Level FlightAware ADS-B
Mon 10:48:57 PM 28.1400 -81.3420 357° North 447 514 39,000  Level FlightAware ADS-B
Mon 10:49:37 PM 28.2200 -81.3480 356° North 447 514 39,000  Level FlightAware ADS-B
Mon 10:50:17 PM 28.3040 -81.3550 356° North 446 513 39,000  Level FlightAware ADS-B
Mon 10:50:57 PM 28.3870 -81.3610 356° North 445 512 39,000  Level FlightAware ADS-B
Mon 10:51:42 PM 28.4780 -81.3680 356° North 441 507 39,000  Level FlightAware ADS-B
Mon 10:52:17 PM 28.5480 -81.3730 356° North 440 506 39,000  Level FlightAware ADS-B
Mon 10:53:12 PM 28.6540 -81.3810 356° North 435 501 39,000  Level FlightAware ADS-B
Mon 10:53:47 PM 28.7270 -81.3860 357° North 436 502 39,000  Level FlightAware ADS-B
Mon 10:54:32 PM 28.8200 -81.3930 356° North 434 499 39,000  Level FlightAware ADS-B
Mon 10:55:12 PM 28.9010 -81.4000 356° North 433 498 39,000  Level FlightAware ADS-B
Mon 10:55:57 PM 28.9920 -81.4060 357° North 433 498 39,000  Level FlightAware ADS-B
Mon 10:56:37 PM 29.0720 -81.4120 356° North 436 502 39,000  Level FlightAware ADS-B
Mon 10:57:17 PM 29.1550 -81.4190 356° North 451 519 39,000  Level FlightAware ADS-B
Mon 10:58:02 PM 29.2520 -81.4260 356° North 450 518 39,000  Level FlightAware ADS-B
Mon 10:58:42 PM 29.3340 -81.4320 356° North 448 516 39,000  Level FlightAware ADS-B
Mon 10:59:17 PM 29.4070 -81.4380 356° North 439 505 39,000  Level FlightAware ADS-B
Mon 11:00:02 PM 29.4910 -81.4450 356° North 439 505 39,000  Level FlightAware ADS-B
Mon 11:00:57 PM 29.6060 -81.4530 357° North 437 503 39,000  Level FlightAware ADS-B
Mon 11:01:47 PM 29.6920 -81.4600 356° North 437 503 39,000  Level FlightAware ADS-B
Mon 11:02:27 PM 29.7600 -81.4660 356° North 437 503 39,000  Level FlightAware ADS-B
Mon 11:03:07 PM 29.8290 -81.4710 356° North 437 503 39,000  Level FlightAware ADS-B
Mon 11:03:47 PM 29.8970 -81.4770 356° North 437 503 39,000  Level FlightAware ADS-B
Mon 11:04:27 PM 29.9660 -81.4820 356° North 437 503 39,000  Level FlightAware ADS-B
Mon 11:05:17 PM 30.1590 -81.4960 356° North 447 514 39,000  Level FlightAware ADS-B
Mon 11:05:57 PM 30.2420 -81.5020 356° North 447 514 39,000  Level FlightAware ADS-B
Mon 11:06:32 PM 30.3040 -81.5060 357° North 448 516 39,000  Level FlightAware ADS-B
Mon 11:06:52 PM 30.3550 -81.4960 10° North 462 532 39,000  Level FlightAware ADS-B
Mon 11:07:37 PM 30.4390 -81.4790 10° North 462 532 39,000  Level FlightAware ADS-B
Mon 11:08:17 PM 30.5100 -81.4640 10° North 462 532 39,000  Level FlightAware ADS-B
Mon 11:08:57 PM 30.5820 -81.4490 10° North 462 532 39,000  Level FlightAware ADS-B
Mon 11:09:37 PM 30.6530 -81.4350 10° North 462 532 39,000  Level FlightAware ADS-B
Mon 11:10:17 PM 30.7250 -81.4200 10° North 462 532 39,000  Level FlightAware ADS-B
Mon 11:11:07 PM 30.8140 -81.4020 10° North 462 532 39,000  Level FlightAware ADS-B
Mon 11:11:47 PM 30.8860 -81.3870 10° North 462 532 39,000  Level FlightAware ADS-B
Mon 11:12:27 PM 30.9580 -81.3720 10° North 462 532 39,000  Level FlightAware ADS-B
Mon 11:13:07 PM 31.0290 -81.3580 10° North 462 532 39,000  Level FlightAware ADS-B
Mon 11:13:47 PM 31.1010 -81.3430 10° North 462 532 39,000  Level FlightAware ADS-B
Mon 11:14:27 PM 31.1720 -81.3280 10° North 462 532 39,000  Level FlightAware ADS-B
Mon 11:15:17 PM 31.2620 -81.3100 10° North 462 532 39,000  Level FlightAware ADS-B
Mon 11:15:57 PM 31.3330 -81.2950 10° North 462 532 39,000  Level FlightAware ADS-B
Mon 11:16:37 PM 31.4050 -81.2800 10° North 462 532 39,000  Level FlightAware ADS-B
Mon 11:16:52 PM 31.5700 -80.9460 60° Northeast 39,000  Level FlightAware ADS-B
Mon 11:17:07 PM 31.5940 -80.9340 23° Northeast 463 533 39,000  Level FlightAware ADS-B
Mon 11:17:47 PM 31.6780 -80.8950 22° Northeast 463 533 39,000  Level FlightAware ADS-B
Mon 11:18:27 PM 31.7470 -80.8620 22° Northeast 463 533 39,000  Level FlightAware ADS-B
Mon 11:19:42 PM 31.9020 -80.7910 21° North 464 534 39,000  Level FlightAware ADS-B
Mon 11:20:22 PM 31.9800 -80.7540 22° Northeast 465 535 39,000  Level FlightAware ADS-B
Mon 11:21:22 PM 32.0850 -80.7020 23° Northeast 468 539 39,000  Level FlightAware ADS-B
Mon 11:22:02 PM 32.1540 -80.6700 21° North 468 539 39,000  Level FlightAware ADS-B
Mon 11:22:42 PM 32.2220 -80.6370 22° Northeast 468 539 39,000  Level FlightAware ADS-B
Mon 11:23:27 PM 32.3560 -80.5740 22° Northeast 472 543 39,000  Level FlightAware ADS-B
Mon 11:24:52 PM 32.5350 -80.4880 22° Northeast 471 542 39,000  Level FlightAware ADS-B
Mon 11:25:32 PM 32.6150 -80.4500 22° Northeast 470 541 39,000  Level FlightAware ADS-B
Mon 11:26:12 PM 32.6970 -80.4110 22° Northeast 470 541 39,000  Level FlightAware ADS-B
Mon 11:26:57 PM 32.7830 -80.3690 22° Northeast 472 543 39,000  Level FlightAware ADS-B
Mon 11:27:37 PM 32.8670 -80.3280 22° Northeast 473 544 39,000  Level FlightAware ADS-B
Mon 11:28:17 PM 32.9490 -80.2890 22° Northeast 473 544 39,000  Level FlightAware ADS-B
Mon 11:29:02 PM 33.0410 -80.2440 22° Northeast 475 547 39,000  Level FlightAware ADS-B
Mon 11:29:42 PM 33.1200 -80.2060 22° Northeast 476 548 39,000  Level FlightAware ADS-B
Mon 11:30:27 PM 33.2130 -80.1600 22° Northeast 476 548 39,000  Level FlightAware ADS-B
Mon 11:31:07 PM 33.2950 -80.1210 22° Northeast 477 549 39,000  Level FlightAware ADS-B
Mon 11:31:52 PM 33.3860 -80.0760 22° Northeast 478 550 39,000  Level FlightAware ADS-B
Mon 11:32:32 PM 33.4650 -80.0370 22° Northeast 478 550 39,000  Level FlightAware ADS-B
Mon 11:33:12 PM 33.5500 -79.9960 22° Northeast 479 551 39,000  Level FlightAware ADS-B
Mon 11:33:57 PM 33.6420 -79.9500 23° Northeast 480 552 39,000  Level FlightAware ADS-B
Mon 11:34:37 PM 33.7230 -79.9100 22° Northeast 481 554 39,000 141 Level FlightAware ADS-B
Mon 11:35:22 PM 33.8150 -79.8650 22° Northeast 484 557 39,200 353 Climbing FlightAware ADS-B
Mon 11:36:02 PM 33.9000 -79.8230 22° Northeast 489 563 39,500 571 Climbing FlightAware ADS-B
Mon 11:37:07 PM 34.0330 -79.7570 22° Northeast 491 565 40,200 382 Climbing FlightAware ADS-B
Mon 11:37:52 PM 34.1190 -79.7150 22° Northeast 491 565 40,200  Level FlightAware ADS-B
Mon 11:38:32 PM 34.1900 -79.6800 22° Northeast 491 565 40,200  Level FlightAware ADS-B
Mon 11:39:12 PM 34.2620 -79.6450 22° Northeast 491 565 40,200  Level FlightAware ADS-B
Mon 11:40:02 PM 34.3510 -79.6010 22° Northeast 491 565 40,200  Level FlightAware ADS-B
Mon 11:40:42 PM 34.4230 -79.5660 22° Northeast 491 565 40,200  Level FlightAware ADS-B
Mon 11:41:22 PM 34.4940 -79.5310 22° Northeast 491 565 40,200  Level FlightAware ADS-B
Mon 11:42:02 PM 34.5660 -79.4960 22° Northeast 491 565 40,200  Level FlightAware ADS-B
Mon 11:42:52 PM 34.6560 -79.4520 22° Northeast 491 565 40,200  Level FlightAware ADS-B
Mon 11:43:22 PM 34.7090 -79.4250 23° Northeast 491 565 40,200  Level FlightAware ADS-B
Mon 11:44:12 PM 34.7990 -79.3810 22° Northeast 491 565 40,200  Level FlightAware ADS-B
Mon 11:44:52 PM 34.8700 -79.3460 22° Northeast 491 565 40,200  Level FlightAware ADS-B
Mon 11:45:32 PM 34.9420 -79.3110 22° Northeast 491 565 40,200  Level FlightAware ADS-B
Mon 11:46:12 PM 35.0140 -79.2760 22° Northeast 491 565 40,200  Level FlightAware ADS-B
Mon 11:47:02 PM 35.1030 -79.2310 22° Northeast 491 565 40,200 533 Level FlightAware ADS-B
Mon 11:47:42 PM 35.3740 -78.9490 40° Northeast 505 581 41,000 565 Climbing FlightAware ADS-B
Mon 11:48:27 PM 35.4650 -78.8920 27° Northeast 506 582 41,000  Level FlightAware ADS-B
Mon 11:49:07 PM 35.5470 -78.8400 27° Northeast 507 583 41,000  Level FlightAware ADS-B
Mon 11:49:52 PM 35.6430 -78.7790 27° Northeast 508 585 41,000  Level FlightAware ADS-B
Mon 11:50:32 PM 35.7270 -78.7250 28° Northeast 511 588 41,000  Level FlightAware ADS-B
Mon 11:51:12 PM 35.8110 -78.6720 27° Northeast 513 590 41,000  Level FlightAware ADS-B
Mon 11:51:57 PM 35.8990 -78.6160 27° Northeast 515 593 41,000  Level FlightAware ADS-B
Mon 11:52:37 PM 35.9900 -78.5580 27° Northeast 516 594 41,000  Level FlightAware ADS-B
Mon 11:53:22 PM 36.0860 -78.4960 28° Northeast 518 596 41,000  Level FlightAware ADS-B
Mon 11:54:02 PM 36.1760 -78.4450 25° Northeast 517 595 41,000  Level FlightAware ADS-B
Mon 11:54:47 PM 36.2710 -78.3960 23° Northeast 517 595 41,000  Level FlightAware ADS-B
Mon 11:55:27 PM 36.3590 -78.3510 22° Northeast 515 593 41,000  Level FlightAware ADS-B
Mon 11:56:07 PM 36.4480 -78.3060 22° Northeast 513 590 41,000  Level FlightAware ADS-B
Mon 11:56:52 PM 36.5480 -78.2550 22° Northeast 511 588 41,000  Level FlightAware ADS-B
Mon 11:57:32 PM 36.6370 -78.2090 23° Northeast 510 587 41,000  Level FlightAware ADS-B
Mon 11:58:12 PM 36.7230 -78.1650 22° Northeast 510 587 41,000  Level FlightAware ADS-B
Mon 11:59:12 PM 36.8480 -78.1010 22° Northeast 503 579 41,000  Level FlightAware ADS-B
Mon 11:59:52 PM 36.9290 -78.0590 23° Northeast 513 590 41,000  Level FlightAware ADS-B
Tue 12:00:32 AM 37.0180 -78.0130 22° Northeast 515 593 41,000  Level FlightAware ADS-B
Tue 12:01:17 AM 37.1230 -77.9590 22° Northeast 517 595 41,000  Level FlightAware ADS-B
Tue 12:01:57 AM 37.2120 -77.9130 22° Northeast 518 596 41,000  Level FlightAware ADS-B
Tue 12:02:37 AM 37.2990 -77.8680 22° Northeast 517 595 41,000  Level FlightAware ADS-B
Tue 12:03:22 AM 37.3990 -77.8160 22° Northeast 518 596 41,000  Level FlightAware ADS-B
Tue 12:04:07 AM 37.4990 -77.7630 23° Northeast 518 596 41,000  Level FlightAware ADS-B
Tue 12:04:40 AM 37.5812 -77.7200 23° Northeast 517 595 41,000  Level FlightAware ADS-B
Tue 12:05:12 AM 37.6496 -77.6841 23° Northeast 516 594 41,000  Level FlightAware ADS-B
Tue 12:05:42 AM 37.7165 -77.6488 23° Northeast 516 594 41,000  Level FlightAware ADS-B
Tue 12:06:13 AM 37.7851 -77.6126 23° Northeast 515 593 41,000  Level FlightAware ADS-B
Tue 12:06:43 AM 37.8511 -77.5776 23° Northeast 514 592 41,000  Level FlightAware ADS-B
Tue 12:07:14 AM 37.9195 -77.5413 23° Northeast 514 592 41,000  Level FlightAware ADS-B
Tue 12:07:47 AM 37.9910 -77.5033 23° Northeast 514 592 41,000  Level FlightAware ADS-B
Tue 12:08:19 AM 38.0603 -77.4664 23° Northeast 515 593 41,000  Level FlightAware ADS-B
Tue 12:08:51 AM 38.1316 -77.4284 23° Northeast 517 595 41,000  Level FlightAware ADS-B
Tue 12:09:22 AM 38.1996 -77.3921 23° Northeast 518 596 41,000  Level FlightAware ADS-B
Tue 12:09:54 AM 38.2715 -77.3535 23° Northeast 519 597 41,000  Level FlightAware ADS-B
Tue 12:10:24 AM 38.3378 -77.3178 23° Northeast 519 597 41,000  Level FlightAware ADS-B
Tue 12:10:55 AM 38.4051 -77.2817 23° Northeast 520 598 41,000  Level FlightAware ADS-B
Tue 12:11:27 AM 38.4765 -77.2432 23° Northeast 522 601 41,000  Level FlightAware ADS-B
Tue 12:12:00 AM 38.5502 -77.2033 23° Northeast 522 601 41,000  Level FlightAware ADS-B
Tue 12:12:31 AM 38.6187 -77.1662 23° Northeast 523 602 41,000  Level FlightAware ADS-B
Tue 12:13:01 AM 38.6864 -77.1296 23° Northeast 522 601 41,000  Level FlightAware ADS-B
Tue 12:13:32 AM 38.7553 -77.0920 23° Northeast 523 602 41,000  Level FlightAware ADS-B
Tue 12:14:03 AM 38.8228 -77.0552 23° Northeast 522 601 41,000  Level FlightAware ADS-B
Tue 12:14:34 AM 38.8912 -77.0178 23° Northeast 522 601 41,000  Level FlightAware ADS-B
Tue 12:15:04 AM 38.9592 -76.9805 23° Northeast 522 601 41,000  Level FlightAware ADS-B
Tue 12:15:34 AM 39.0261 -76.9437 23° Northeast 521 600 41,000  Level FlightAware ADS-B
Tue 12:16:05 AM 39.0949 -76.9060 23° Northeast 521 600 41,000  Level FlightAware ADS-B
Tue 12:16:35 AM 39.1614 -76.8693 23° Northeast 521 600 41,000  Level FlightAware ADS-B
Tue 12:17:07 AM 39.2309 -76.8309 23° Northeast 521 600 41,000  Level FlightAware ADS-B
Tue 12:17:37 AM 39.2982 -76.7936 23° Northeast 521 600 41,000  Level FlightAware ADS-B
Tue 12:18:08 AM 39.3673 -76.7554 23° Northeast 522 601 41,000  Level FlightAware ADS-B
Tue 12:18:39 AM 39.4364 -76.7170 23° Northeast 521 600 41,000  Level FlightAware ADS-B
Tue 12:19:10 AM 39.5036 -76.6795 23° Northeast 521 600 41,000  Level FlightAware ADS-B
Tue 12:19:40 AM 39.5708 -76.6420 23° Northeast 521 600 41,000  Level FlightAware ADS-B
Tue 12:20:11 AM 39.6393 -76.6037 23° Northeast 521 600 41,000  Level FlightAware ADS-B
Tue 12:20:42 AM 39.7060 -76.5663 23° Northeast 520 598 41,000  Level FlightAware ADS-B
Tue 12:21:12 AM 39.7722 -76.5292 23° Northeast 520 598 41,000  Level FlightAware ADS-B
Tue 12:21:42 AM 39.8401 -76.4909 23° Northeast 519 597 41,000  Level FlightAware ADS-B
Tue 12:22:12 AM 39.9057 -76.4539 23° Northeast 520 598 41,000  Level FlightAware ADS-B
Tue 12:22:43 AM 39.9737 -76.4154 23° Northeast 520 598 41,000  Level FlightAware ADS-B
Tue 12:23:13 AM 40.0408 -76.3774 23° Northeast 522 601 41,000  Level FlightAware ADS-B
Tue 12:23:44 AM 40.1080 -76.3392 23° Northeast 521 600 41,000  Level FlightAware ADS-B
Tue 12:24:14 AM 40.1746 -76.3013 23° Northeast 521 600 41,000  Level FlightAware ADS-B
Tue 12:24:44 AM 40.2408 -76.2636 23° Northeast 520 598 41,000  Level FlightAware ADS-B
Tue 12:25:14 AM 40.3078 -76.2253 24° Northeast 521 600 41,000  Level FlightAware ADS-B
Tue 12:25:45 AM 40.3744 -76.1871 24° Northeast 521 600 41,000  Level FlightAware ADS-B
Tue 12:26:15 AM 40.4410 -76.1489 24° Northeast 521 600 41,000  Level FlightAware ADS-B
Tue 12:26:45 AM 40.5081 -76.1102 24° Northeast 522 601 41,000  Level FlightAware ADS-B
Tue 12:27:15 AM 40.5744 -76.0719 24° Northeast 522 601 41,000  Level FlightAware ADS-B
Tue 12:27:45 AM 40.6407 -76.0336 24° Northeast 521 600 41,000  Level FlightAware ADS-B
Tue 12:28:15 AM 40.7072 -75.9951 24° Northeast 520 598 41,000  Level FlightAware ADS-B
Tue 12:28:46 AM 40.7753 -75.9556 24° Northeast 518 596 41,000  Level FlightAware ADS-B
Tue 12:29:16 AM 40.8409 -75.9175 24° Northeast 516 594 41,000  Level FlightAware ADS-B
Tue 12:29:47 AM 40.9068 -75.8791 24° Northeast 515 593 41,000  Level FlightAware ADS-B
Tue 12:30:17 AM 40.9725 -75.8407 24° Northeast 515 593 41,000  Level FlightAware ADS-B
Tue 12:30:47 AM 41.0383 -75.8022 24° Northeast 516 594 41,000  Level FlightAware ADS-B
Tue 12:31:18 AM 41.1060 -75.7625 24° Northeast 517 595 41,000  Level FlightAware ADS-B
Tue 12:31:48 AM 41.1716 -75.7240 24° Northeast 518 596 41,000  Level FlightAware ADS-B
Tue 12:32:18 AM 41.2372 -75.6853 24° Northeast 519 597 41,000  Level FlightAware ADS-B
Tue 12:32:48 AM 41.3034 -75.6462 24° Northeast 519 597 41,000  Level FlightAware ADS-B
Tue 12:33:18 AM 41.3702 -75.6068 24° Northeast 520 598 41,000  Level FlightAware ADS-B
Tue 12:33:49 AM 41.4375 -75.5668 24° Northeast 521 600 41,000  Level FlightAware ADS-B
Tue 12:34:19 AM 41.5040 -75.5272 24° Northeast 523 602 41,000  Level FlightAware ADS-B
Tue 12:34:50 AM 41.5706 -75.4874 24° Northeast 523 602 41,000  Level FlightAware ADS-B
Tue 12:35:20 AM 41.6369 -75.4478 24° Northeast 524 603 41,000  Level FlightAware ADS-B
Tue 12:35:51 AM 41.7076 -75.4054 24° Northeast 525 604 41,000  Level FlightAware ADS-B
Tue 12:36:22 AM 41.7749 -75.3650 24° Northeast 525 604 41,000  Level FlightAware ADS-B
Tue 12:36:52 AM 41.8418 -75.3248 24° Northeast 525 604 41,000  Level FlightAware ADS-B
Tue 12:37:24 AM 41.9119 -75.2826 24° Northeast 526 605 41,000  Level FlightAware ADS-B
Tue 12:37:54 AM 41.9798 -75.2415 24° Northeast 527 606 41,000  Level FlightAware ADS-B
Tue 12:38:25 AM 42.0472 -75.2006 24° Northeast 527 606 41,000  Level FlightAware ADS-B
Tue 12:38:55 AM 42.1143 -75.1599 24° Northeast 528 608 41,000  Level FlightAware ADS-B
Tue 12:39:25 AM 42.1818 -75.1188 24° Northeast 528 608 41,000  Level FlightAware ADS-B
Tue 12:39:55 AM 42.2484 -75.0781 24° Northeast 527 606 41,000  Level FlightAware ADS-B
Tue 12:40:26 AM 42.3167 -75.0364 24° Northeast 526 605 41,000  Level FlightAware ADS-B
Tue 12:40:57 AM 42.3845 -74.9947 24° Northeast 526 605 41,000  Level FlightAware ADS-B
Tue 12:41:28 AM 42.4526 -74.9529 24° Northeast 525 604 41,000  Level FlightAware ADS-B
Tue 12:41:59 AM 42.5221 -74.9102 24° Northeast 526 605 41,000  Level FlightAware ADS-B
Tue 12:42:30 AM 42.5899 -74.8682 25° Northeast 528 608 41,000  Level FlightAware ADS-B
Tue 12:43:02 AM 42.6480 -74.8320 25° Northeast 527 606 41,000  Level FlightAware ADS-B
Tue 12:43:07 AM 42.6732 -74.8166 24° Northeast 528 608 41,000  Level FlightAware ADS-B
Tue 12:43:47 AM 42.7450 -74.7720 25° Northeast 529 609 41,000  Level FlightAware ADS-B
Tue 12:44:15 AM 42.8243 -74.7227 25° Northeast 529 609 41,000  Level FlightAware ADS-B
Tue 12:45:07 AM 42.9250 -74.6600 25° Northeast 529 609 41,000  Level FlightAware ADS-B
Tue 12:45:24 AM 42.9763 -74.6276 25° Northeast 529 609 41,000  Level FlightAware ADS-B
Tue 12:46:32 AM 43.1130 -74.5420 25° Northeast 527 606 41,000 -159 Level FlightAware ADS-B
Tue 12:47:17 AM 43.2120 -74.4800 25° Northeast 532 612 40,700 -424 Descending FlightAware ADS-B
Tue 12:47:57 AM 43.3000 -74.4240 25° Northeast 533 613 40,400 -1,050 Descending FlightAware ADS-B
Tue 12:48:37 AM 43.3910 -74.3660 25° Northeast 534 615 39,300 -1,835 Descending FlightAware ADS-B
Tue 12:49:22 AM 43.4900 -74.3020 25° Northeast 527 606 37,800 -1,976 Descending FlightAware ADS-B
Tue 12:50:02 AM 43.5730 -74.2500 24° Northeast 526 605 36,500 -2,250 Descending FlightAware ADS-B
Tue 12:50:42 AM 43.6760 -74.1840 25° Northeast 526 605 34,800 -2,400 Descending FlightAware ADS-B
Tue 12:51:22 AM 43.7610 -74.1290 25° Northeast 523 602 33,300 -2,259 Descending FlightAware ADS-B
Tue 12:52:07 AM 43.8590 -74.0650 25° Northeast 513 590 31,600 -2,133 Descending FlightAware ADS-B
Tue 12:52:52 AM 43.9540 -74.0040 25° Northeast 498 573 30,100 -1,976 Descending FlightAware ADS-B
Tue 12:53:32 AM 44.0350 -73.9510 25° Northeast 476 548 28,800 -2,047 Descending FlightAware ADS-B
Tue 12:54:17 AM 44.1210 -73.8970 24° Northeast 463 533 27,200 -2,047 Descending FlightAware ADS-B
Tue 12:54:57 AM 44.2060 -73.8680 14° North 451 519 25,900 -2,100 Descending FlightAware ADS-B
Tue 12:55:37 AM 44.2910 -73.8390 14° North 442 509 24,400 -2,047 Descending FlightAware ADS-B
Tue 12:56:22 AM 44.3810 -73.8080 14° North 431 496 23,000 -1,906 Descending FlightAware ADS-B
Tue 12:57:02 AM 44.4580 -73.7820 14° North 421 484 21,700 -1,950 Descending FlightAware ADS-B
Tue 12:57:42 AM 44.5350 -73.7570 13° North 412 474 20,400 -2,047 Descending FlightAware ADS-B
Tue 12:58:27 AM 44.6150 -73.7310 13° North 407 468 18,800 -2,118 Descending FlightAware ADS-B
Tue 12:59:07 AM 44.6880 -73.7110 11° North 396 456 17,400 -2,400 Descending FlightAware ADS-B
Tue 12:59:52 AM 44.7710 -73.6890 11° North 395 455 15,400 -2,824 Descending FlightAware ADS-B
Tue 01:00:32 AM 44.8440 -73.6680 12° North 401 461 13,400 -2,400 Descending FlightAware ADS-B
Tue 01:01:17 AM 44.9230 -73.6460 11° North 385 443 12,000 -1,976 Descending FlightAware ADS-B
Tue 01:01:57 AM 44.9920 -73.6260 12° North 377 434 10,600 -1,425 Descending FlightAware ADS-B
Tue 01:02:37 AM 45.0580 -73.6080 11° North 346 398 10,100 -686 Descending FlightAware ADS-B
Tue 01:03:07 AM 45.1040 -73.5950 11° North 326 375 9,800 -600 Descending FlightAware ADS-B
Tue 01:03:37 AM 45.1460 -73.5830 11° North 303 349 9,500 -1,091 Descending FlightAware ADS-B
Tue 01:04:02 AM 45.1810 -73.5730 11° North 291 335 8,800 -1,855 Descending FlightAware ADS-B
Tue 01:04:32 AM 45.2210 -73.5620 11° North 290 334 7,800 -2,000 Descending FlightAware ADS-B
Tue 01:04:47 AM 45.2390 -73.5570 11° North 288 331 7,300 -1,800 Descending FlightAware ADS-B
Tue 01:05:12 AM 45.2730 -73.5470 12° North 287 330 6,600 -1,418 Descending FlightAware ADS-B
Tue 01:05:42 AM 45.3130 -73.5360 11° North 277 319 6,000 -933 Descending FlightAware ADS-B
Tue 01:05:57 AM 45.3300 -73.5310 12° North 271 312 5,900 -900 Descending FlightAware ADS-B
Tue 01:06:22 AM 45.3610 -73.5220 12° North 268 308 5,400 -1,309 Descending FlightAware ADS-B
Tue 01:06:52 AM 45.3980 -73.5120 11° North 270 311 4,700 -1,527 Descending FlightAware ADS-B
Tue 01:07:17 AM 45.4270 -73.5030 12° North 270 311 4,000 -1,418 Descending FlightAware ADS-B
Tue 01:07:47 AM 45.4630 -73.4930 11° North 261 300 3,400 -982 Descending FlightAware ADS-B
Tue 01:08:12 AM 45.4930 -73.4850 11° North 245 282 3,100 -873 Descending FlightAware ADS-B
Tue 01:08:42 AM 45.5270 -73.4770 North 245 282 2,600 -655 Descending FlightAware ADS-B
Tue 01:09:07 AM 45.5520 -73.4720 North 248 285 2,500 -133 Descending FlightAware ADS-B
Tue 01:09:27 AM 45.5720 -73.4820 341° North 241 277 2,500  Level FlightAware ADS-B
Tue 01:09:47 AM 45.5880 -73.5020 319° Northwest 239 275 2,500  Level FlightAware ADS-B
Tue 01:10:02 AM 45.6010 -73.5180 319° Northwest 229 264 2,500  Level FlightAware ADS-B
Tue 01:10:22 AM 45.6090 -73.5430 295° West 210 242 2,500  Level FlightAware ADS-B
Tue 01:10:47 AM 45.6050 -73.5770 260° West 203 234 2,500  Level FlightAware ADS-B
Tue 01:11:02 AM 45.5960 -73.5900 225° Southwest 188 216 2,500 -267 Level FlightAware ADS-B
Tue 01:11:32 AM 45.5770 -73.6130 220° Southwest 171 197 2,300 -800 Descending FlightAware ADS-B
Tue 01:11:47 AM 45.5680 -73.6250 223° Southwest 174 200 1,900 -1,200 Descending FlightAware ADS-B
Tue 01:12:12 AM 45.5530 -73.6440 222° Southwest 162 186 1,500 -750 Descending FlightAware ADS-B
Tue 01:12:27 AM 45.5450 -73.6550 224° Southwest 150 173 1,400 -667 Descending FlightAware ADS-B
Tue 01:12:57 AM 45.5310 -73.6730 222° Southwest 131 151 1,000 -900 Descending FlightAware ADS-B
Tue 01:13:07 AM 45.5270 -73.6790 226° Southwest 128 147 800 -857 Descending FlightAware ADS-B
Tue 01:13:32 AM 45.5160 -73.6930 222° Southwest 128 147 500 -700 Descending FlightAware ADS-B
Tue 01:14:07 AM 45.5000 -73.7140 223° Southwest 131 151 100 -686 Descending FlightAware ADS-B
Tue 01:14:32 AM 45.4900 -73.7270 222° Southwest 131 151 -240 Descending FlightAware ADS-B

Login

Don't have an account? Register now (free) for customized features, flight alerts, and more!